createdAt,value
2018-03-28T00:01:02.761Z,12.07
2018-03-28T00:02:08.565Z,13.43
2018-03-28T00:03:15.092Z,14.82
2018-03-28T00:04:20.964Z,12.07
2018-03-28T00:05:26.885Z,11.32
2018-03-28T00:06:32.638Z,12.13
2018-03-28T00:07:39.909Z,14.07
2018-03-28T00:08:45.660Z,13.75
2018-03-28T00:09:51.416Z,15.52
2018-03-28T00:10:57.168Z,14.00
2018-03-28T00:12:03.680Z,12.27
2018-03-28T00:13:09.448Z,13.20
2018-03-28T00:14:15.206Z,13.85
2018-03-28T00:15:21.717Z,12.55
2018-03-28T00:16:27.236Z,11.77
2018-03-28T00:17:33.011Z,14.55
2018-03-28T00:18:38.782Z,14.20
2018-03-28T00:19:45.364Z,15.20
2018-03-28T00:20:51.121Z,13.93
2018-03-28T00:21:56.885Z,16.17
2018-03-28T00:23:02.633Z,18.35
2018-03-28T00:24:08.424Z,13.93
2018-03-28T00:25:14.928Z,13.55
2018-03-28T00:26:20.830Z,16.10
2018-03-28T00:27:26.606Z,13.55
2018-03-28T00:28:32.353Z,12.32
2018-03-28T00:29:38.124Z,14.05
2018-03-28T00:30:43.884Z,16.75
2018-03-28T00:31:50.424Z,17.20
2018-03-28T00:32:56.174Z,12.45
2018-03-28T00:34:01.932Z,14.98
2018-03-28T00:35:08.481Z,13.82
2018-03-28T00:36:15.266Z,15.45
2018-03-28T00:37:21.030Z,14.93
2018-03-28T00:38:26.785Z,16.20
2018-03-28T00:39:32.633Z,15.27
2018-03-28T00:40:38.410Z,16.60
2018-03-28T00:41:44.937Z,15.20
2018-03-28T00:42:50.685Z,14.30
2018-03-28T00:43:57.903Z,16.33
2018-03-28T00:45:04.412Z,14.55
2018-03-28T00:46:10.199Z,16.00
2018-03-28T00:47:16.727Z,14.80
2018-03-28T00:48:22.497Z,13.65
2018-03-28T00:49:29.096Z,15.88
2018-03-28T00:50:34.844Z,13.40
2018-03-28T00:51:40.620Z,15.55
2018-03-28T00:52:47.145Z,14.15
2018-03-28T00:53:52.930Z,16.65
2018-03-28T00:54:58.712Z,17.48
2018-03-28T00:56:04.460Z,15.55
2018-03-28T00:57:10.256Z,17.95
2018-03-28T00:58:16.787Z,16.58
2018-03-28T00:59:22.553Z,17.37
2018-03-28T01:00:28.333Z,14.93
2018-03-28T01:01:34.088Z,13.75
2018-03-28T01:02:39.865Z,16.10
2018-03-28T01:03:44.993Z,14.23
2018-03-28T01:04:50.749Z,14.35
2018-03-28T01:05:57.277Z,15.48
2018-03-28T01:07:03.093Z,18.10
2018-03-28T01:08:08.899Z,17.05
2018-03-28T01:09:15.421Z,19.02
2018-03-28T01:10:21.176Z,17.50
2018-03-28T01:11:26.956Z,13.88
2018-03-28T01:12:33.469Z,16.58
2018-03-28T01:13:39.251Z,17.20
2018-03-28T01:14:45.804Z,19.30
2018-03-28T01:15:52.325Z,16.77
2018-03-28T01:16:58.079Z,18.08
2018-03-28T01:18:03.875Z,16.75
2018-03-28T01:19:09.661Z,20.45
2018-03-28T01:20:15.531Z,18.85
2018-03-28T01:21:22.068Z,19.12
2018-03-28T01:22:27.178Z,17.90
2018-03-28T01:23:32.945Z,15.70
2018-03-28T01:24:38.908Z,21.62
2018-03-28T01:25:45.429Z,17.62
2018-03-28T01:26:51.190Z,17.65
2018-03-28T01:27:56.956Z,19.10
2018-03-28T01:29:02.900Z,16.80
2018-03-28T01:30:09.445Z,16.75
2018-03-28T01:31:15.199Z,19.17
2018-03-28T01:32:21.725Z,18.95
2018-03-28T01:33:27.484Z,18.12
2018-03-28T01:34:33.248Z,17.25
2018-03-28T01:35:39.784Z,18.17
2018-03-28T01:36:45.764Z,21.80
2018-03-28T01:37:52.295Z,17.40
2018-03-28T01:38:58.065Z,20.58
2018-03-28T01:40:03.584Z,18.40
2018-03-28T01:41:10.160Z,19.52
2018-03-28T01:42:16.736Z,23.45
2018-03-28T01:43:22.491Z,19.83
2018-03-28T01:44:28.251Z,20.27
2018-03-28T01:45:34.015Z,17.73
2018-03-28T01:46:39.792Z,19.80
2018-03-28T01:47:45.777Z,17.45
2018-03-28T01:48:51.526Z,19.00
2018-03-28T01:49:57.272Z,21.70
2018-03-28T01:51:02.800Z,19.62
2018-03-28T01:52:08.345Z,24.00
2018-03-28T01:53:14.155Z,21.30
2018-03-28T01:54:19.679Z,19.55
2018-03-28T01:55:25.433Z,20.98
2018-03-28T01:56:31.196Z,20.77
2018-03-28T01:57:36.971Z,19.85
2018-03-28T01:58:42.741Z,20.60
2018-03-28T01:59:48.500Z,18.90
2018-03-28T02:00:54.263Z,20.23
2018-03-28T02:02:00.013Z,20.98
2018-03-28T02:03:05.800Z,18.12
2018-03-28T02:04:12.313Z,23.98
2018-03-28T02:05:18.076Z,19.85
2018-03-28T02:06:23.824Z,22.05
2018-03-28T02:07:30.354Z,22.75
2018-03-28T02:08:36.129Z,20.75
2018-03-28T02:09:42.657Z,18.20
2018-03-28T02:10:48.461Z,18.55
2018-03-28T02:11:54.235Z,22.87
2018-03-28T02:12:59.994Z,23.75
2018-03-28T02:14:05.773Z,21.90
2018-03-28T02:15:12.288Z,21.73
2018-03-28T02:16:18.053Z,22.40
2018-03-28T02:17:24.582Z,21.48
2018-03-28T02:18:30.388Z,23.75
2018-03-28T02:19:36.169Z,19.70
2018-03-28T02:20:41.716Z,20.90
2018-03-28T02:21:47.483Z,20.70
2018-03-28T02:22:54.014Z,22.62
2018-03-28T02:23:59.789Z,25.95
2018-03-28T02:25:06.330Z,20.30
2018-03-28T02:26:12.094Z,23.02
2018-03-28T02:27:18.619Z,19.25
2018-03-28T02:28:24.371Z,23.85
2018-03-28T02:29:30.117Z,25.80
2018-03-28T02:30:35.898Z,29.37
2018-03-28T02:31:41.656Z,25.83
2018-03-28T02:32:47.418Z,28.08
2018-03-28T02:33:53.171Z,34.20
2018-03-28T02:34:58.939Z,24.17
2018-03-28T02:36:04.477Z,26.12
2018-03-28T02:37:10.998Z,27.67
2018-03-28T02:38:16.769Z,22.95
2018-03-28T02:39:22.529Z,27.55
2018-03-28T02:40:29.247Z,27.13
2018-03-28T02:41:35.024Z,23.17
2018-03-28T02:42:41.312Z,26.27
2018-03-28T02:43:47.079Z,22.73
2018-03-28T02:44:52.824Z,26.95
2018-03-28T02:45:58.567Z,25.98
2018-03-28T02:47:04.118Z,23.65
2018-03-28T02:48:09.872Z,28.60
2018-03-28T02:49:15.630Z,26.00
2018-03-28T02:50:22.142Z,26.37
2018-03-28T02:51:27.887Z,26.52
2018-03-28T02:52:33.656Z,25.60
2018-03-28T02:53:40.195Z,24.40
2018-03-28T02:54:45.722Z,26.17
2018-03-28T02:55:51.544Z,26.23
2018-03-28T02:56:57.343Z,25.25
2018-03-28T02:58:03.131Z,24.05
2018-03-28T02:59:08.885Z,26.45
2018-03-28T03:00:14.638Z,28.10
2018-03-28T03:01:20.410Z,26.20
2018-03-28T03:02:26.946Z,23.52
2018-03-28T03:03:32.714Z,25.90
2018-03-28T03:04:39.239Z,29.60
2018-03-28T03:05:44.993Z,25.70
2018-03-28T03:06:50.740Z,25.92
2018-03-28T03:07:57.341Z,31.12
2018-03-28T03:09:03.166Z,27.48
2018-03-28T03:10:09.676Z,28.42
2018-03-28T03:11:15.429Z,26.35
2018-03-28T03:12:21.173Z,25.62
2018-03-28T03:13:26.916Z,26.33
2018-03-28T03:14:32.694Z,28.12
2018-03-28T03:15:39.205Z,23.60
2018-03-28T03:16:44.972Z,25.52
2018-03-28T03:17:50.729Z,26.40
2018-03-28T03:18:57.242Z,27.37
2018-03-28T03:20:03.032Z,24.73
2018-03-28T03:21:09.539Z,27.90
2018-03-28T03:22:15.282Z,26.20
2018-03-28T03:23:21.028Z,27.40
2018-03-28T03:24:26.786Z,26.58
2018-03-28T03:25:32.595Z,26.10
2018-03-28T03:26:38.368Z,24.63
2018-03-28T03:27:44.118Z,26.33
2018-03-28T03:28:49.865Z,28.98
2018-03-28T03:29:55.618Z,25.33
2018-03-28T03:31:02.172Z,26.62
2018-03-28T03:32:07.913Z,27.30
2018-03-28T03:33:13.687Z,25.23
2018-03-28T03:34:20.201Z,25.05
2018-03-28T03:35:26.001Z,27.65
2018-03-28T03:36:31.572Z,28.08
2018-03-28T03:37:37.509Z,29.90
2018-03-28T03:38:43.261Z,28.30
2018-03-28T03:39:49.011Z,30.17
2018-03-28T03:40:54.766Z,27.05
2018-03-28T03:42:01.324Z,27.00
2018-03-28T03:43:07.083Z,24.15
2018-03-28T03:44:13.614Z,27.17
2018-03-28T03:45:20.129Z,29.40
2018-03-28T03:46:25.883Z,28.15
2018-03-28T03:47:31.650Z,30.98
2018-03-28T03:48:37.406Z,28.17
2018-03-28T03:49:43.951Z,30.20
2018-03-28T03:50:49.712Z,28.77
2018-03-28T03:51:55.476Z,28.90
2018-03-28T03:53:02.014Z,25.25
2018-03-28T03:54:07.790Z,27.08
2018-03-28T03:55:13.533Z,28.27
2018-03-28T03:56:19.424Z,30.20
2018-03-28T03:57:25.176Z,32.00
2018-03-28T03:58:32.466Z,28.98
2018-03-28T03:59:38.990Z,27.65
2018-03-28T04:00:44.791Z,28.40
2018-03-28T04:01:50.830Z,29.33
2018-03-28T04:02:57.342Z,27.70
2018-03-28T04:04:03.143Z,25.50
2018-03-28T04:05:08.953Z,29.00
2018-03-28T04:06:14.712Z,29.05
2018-03-28T04:07:21.229Z,29.92
2018-03-28T04:08:26.988Z,26.67
2018-03-28T04:09:32.746Z,26.12
2018-03-28T04:10:39.265Z,28.05
2018-03-28T04:11:45.018Z,26.62
2018-03-28T04:12:50.770Z,28.70
2018-03-28T04:13:57.298Z,30.80
2018-03-28T04:15:03.073Z,32.88
2018-03-28T04:16:08.511Z,31.87
2018-03-28T04:17:14.258Z,25.00
2018-03-28T04:18:20.847Z,27.40
2018-03-28T04:19:26.581Z,28.05
2018-03-28T04:20:33.665Z,28.62
2018-03-28T04:21:39.659Z,27.48
2018-03-28T04:22:47.193Z,29.42
2018-03-28T04:23:53.073Z,31.50
2018-03-28T04:24:59.398Z,29.65
2018-03-28T04:26:05.559Z,30.58
2018-03-28T04:27:11.709Z,29.65
2018-03-28T04:28:17.828Z,26.95
2018-03-28T04:29:23.901Z,28.23
2018-03-28T04:30:29.873Z,32.28
2018-03-28T04:31:35.736Z,32.78
2018-03-28T04:32:41.557Z,32.00
2018-03-28T04:33:47.388Z,30.58
2018-03-28T04:34:53.138Z,33.10
2018-03-28T04:35:58.892Z,29.10
2018-03-28T04:37:04.667Z,29.67
2018-03-28T04:38:11.197Z,29.63
2018-03-28T04:39:16.952Z,33.53
2018-03-28T04:40:22.724Z,29.58
2018-03-28T04:41:28.476Z,28.95
2018-03-28T04:42:34.253Z,30.30
2018-03-28T04:43:40.006Z,41.80
2018-03-28T04:44:45.766Z,33.97
2018-03-28T04:45:51.543Z,33.47
2018-03-28T04:46:57.300Z,34.33
2018-03-28T04:48:03.084Z,33.30
2018-03-28T04:49:08.824Z,39.03
2018-03-28T04:50:14.593Z,41.95
2018-03-28T04:51:20.914Z,38.33
2018-03-28T04:52:28.180Z,36.60
2018-03-28T04:53:33.960Z,40.92
2018-03-28T04:54:40.513Z,33.28
2018-03-28T04:55:47.112Z,36.00
2018-03-28T04:56:53.806Z,34.25
2018-03-28T04:57:59.568Z,32.35
2018-03-28T04:59:05.371Z,34.85
2018-03-28T05:00:11.130Z,31.90
2018-03-28T05:01:16.872Z,33.60
2018-03-28T05:02:22.617Z,39.67
2018-03-28T05:03:28.374Z,29.55
2018-03-28T05:04:34.157Z,33.13
2018-03-28T05:05:39.901Z,38.55
2018-03-28T05:06:45.664Z,30.35
2018-03-28T05:07:51.413Z,39.60
2018-03-28T05:08:57.167Z,38.55
2018-03-28T05:10:02.934Z,33.92
2018-03-28T05:11:08.811Z,38.22
2018-03-28T05:12:14.565Z,35.13
2018-03-28T05:13:20.352Z,38.25
2018-03-28T05:14:26.150Z,36.20
2018-03-28T05:15:31.996Z,38.33
2018-03-28T05:16:37.749Z,35.67
2018-03-28T05:17:43.516Z,32.17
2018-03-28T05:18:49.283Z,35.80
2018-03-28T05:19:55.809Z,30.95
2018-03-28T05:21:01.605Z,38.00
2018-03-28T05:22:08.127Z,38.88
2018-03-28T05:23:13.686Z,36.95
2018-03-28T05:24:20.225Z,36.10
2018-03-28T05:25:25.973Z,35.33
2018-03-28T05:26:32.530Z,34.78
2018-03-28T05:27:38.293Z,34.53
2018-03-28T05:28:44.809Z,39.20
2018-03-28T05:29:50.562Z,43.70
2018-03-28T05:30:56.847Z,46.75
2018-03-28T05:32:02.641Z,49.83
2018-03-28T05:33:08.392Z,50.63
2018-03-28T05:34:13.913Z,46.53
2018-03-28T05:35:19.665Z,47.75
2018-03-28T05:36:25.186Z,56.22
2018-03-28T05:37:30.974Z,55.17
2018-03-28T05:38:37.500Z,48.13
2018-03-28T05:39:43.251Z,52.08
2018-03-28T05:40:48.997Z,57.90
2018-03-28T05:41:54.759Z,50.38
2018-03-28T05:43:01.301Z,45.92
2018-03-28T05:44:08.571Z,50.30
2018-03-28T05:45:15.092Z,48.03
2018-03-28T05:46:20.877Z,50.58
2018-03-28T05:47:30.439Z,40.85
2018-03-28T05:48:36.997Z,43.15
2018-03-28T05:49:43.660Z,45.63
2018-03-28T05:50:49.516Z,44.03
2018-03-28T05:51:56.022Z,42.25
2018-03-28T05:53:01.819Z,40.50
2018-03-28T05:54:07.584Z,47.22
2018-03-28T05:55:13.336Z,43.80
2018-03-28T05:56:18.777Z,47.72
2018-03-28T05:57:24.529Z,41.50
2018-03-28T05:58:30.416Z,36.97
2018-03-28T05:59:39.441Z,41.58
2018-03-28T06:00:45.196Z,44.90
2018-03-28T06:01:50.984Z,42.88
2018-03-28T06:02:56.745Z,43.75
2018-03-28T06:04:03.269Z,46.20
2018-03-28T06:05:09.050Z,42.22
2018-03-28T06:06:15.580Z,41.70
2018-03-28T06:07:21.408Z,37.40
2018-03-28T06:08:28.074Z,38.75
2018-03-28T06:09:33.842Z,35.08
2018-03-28T06:10:39.610Z,45.40
2018-03-28T06:11:45.369Z,37.15
2018-03-28T06:12:51.146Z,41.05
2018-03-28T06:13:56.943Z,39.35
2018-03-28T06:15:03.643Z,42.50
2018-03-28T06:16:09.081Z,41.30
2018-03-28T06:17:14.862Z,38.38
2018-03-28T06:18:20.604Z,39.53
2018-03-28T06:19:27.120Z,40.20
2018-03-28T06:20:32.914Z,38.70
2018-03-28T06:21:38.750Z,40.78
2018-03-28T06:22:45.275Z,35.83
2018-03-28T06:23:51.038Z,41.78
2018-03-28T06:24:57.248Z,44.58
2018-03-28T06:26:03.006Z,43.35
2018-03-28T06:27:08.776Z,41.75
2018-03-28T06:28:14.531Z,39.85
2018-03-28T06:29:21.110Z,36.92
2018-03-28T06:30:26.853Z,40.40
2018-03-28T06:31:32.602Z,44.25
2018-03-28T06:32:38.433Z,36.30
2018-03-28T06:33:44.274Z,43.15
2018-03-28T06:34:50.026Z,37.10
2018-03-28T06:35:55.786Z,43.40
2018-03-28T06:37:01.297Z,41.72
2018-03-28T06:38:07.057Z,39.83
2018-03-28T06:39:12.875Z,38.85
2018-03-28T06:40:19.390Z,38.08
2018-03-28T06:41:25.164Z,44.42
2018-03-28T06:42:30.930Z,38.58
2018-03-28T06:43:37.474Z,44.55
2018-03-28T06:44:44.041Z,39.30
2018-03-28T06:45:49.781Z,43.10
2018-03-28T06:46:55.541Z,40.97
2018-03-28T06:48:01.320Z,44.42
2018-03-28T06:49:07.122Z,38.30
2018-03-28T06:50:12.874Z,40.65
2018-03-28T06:51:18.640Z,40.38
2018-03-28T06:52:24.386Z,41.42
2018-03-28T06:53:31.677Z,41.83
2018-03-28T06:54:38.508Z,42.15
2018-03-28T06:55:44.254Z,40.45
2018-03-28T06:56:50.018Z,40.22
2018-03-28T06:57:55.777Z,38.03
2018-03-28T06:59:01.537Z,40.78
2018-03-28T07:00:08.086Z,43.15
2018-03-28T07:01:14.633Z,43.53
2018-03-28T07:02:20.422Z,40.90
2018-03-28T07:03:26.176Z,43.45
2018-03-28T07:04:31.921Z,42.33
2018-03-28T07:05:37.699Z,43.30
2018-03-28T07:06:43.440Z,44.17
2018-03-28T07:07:49.205Z,41.65
2018-03-28T07:08:54.972Z,37.50
2018-03-28T07:10:00.717Z,43.08
2018-03-28T07:11:06.503Z,41.90
2018-03-28T07:12:13.109Z,39.38
2018-03-28T07:13:18.878Z,44.28
2018-03-28T07:14:24.632Z,42.40
2018-03-28T07:15:30.468Z,41.65
2018-03-28T07:16:36.243Z,42.78
2018-03-28T07:17:42.534Z,39.72
2018-03-28T07:18:48.285Z,42.38
2018-03-28T07:19:54.035Z,43.80
2018-03-28T07:21:00.662Z,47.40
2018-03-28T07:22:07.197Z,43.78
2018-03-28T07:23:12.945Z,42.50
2018-03-28T07:24:19.225Z,41.67
2018-03-28T07:25:24.985Z,40.50
2018-03-28T07:26:30.749Z,42.17
2018-03-28T07:27:36.281Z,38.95
2018-03-28T07:28:42.029Z,40.63
2018-03-28T07:29:47.768Z,38.70
2018-03-28T07:30:53.556Z,44.38
2018-03-28T07:32:00.082Z,41.58
2018-03-28T07:33:05.848Z,44.92
2018-03-28T07:34:12.361Z,45.12
2018-03-28T07:35:18.101Z,42.28
2018-03-28T07:36:23.987Z,38.67
2018-03-28T07:37:29.725Z,43.42
2018-03-28T07:38:36.389Z,43.03
2018-03-28T07:39:42.916Z,41.70
2018-03-28T07:40:48.673Z,45.97
2018-03-28T07:41:54.089Z,38.67
2018-03-28T07:42:59.841Z,42.50
2018-03-28T07:44:05.644Z,41.80
2018-03-28T07:45:11.401Z,47.70
2018-03-28T07:46:17.163Z,42.10
2018-03-28T07:47:22.909Z,40.00
2018-03-28T07:48:28.661Z,45.03
2018-03-28T07:49:34.447Z,41.65
2018-03-28T07:50:40.223Z,39.10
2018-03-28T07:51:45.972Z,41.67
2018-03-28T07:52:51.733Z,42.13
2018-03-28T07:53:57.489Z,45.03
2018-03-28T07:55:03.808Z,42.42
2018-03-28T07:56:09.736Z,43.60
2018-03-28T07:57:15.500Z,41.60
2018-03-28T07:58:21.241Z,43.15
2018-03-28T07:59:27.068Z,45.50
2018-03-28T08:00:32.864Z,41.92
2018-03-28T08:01:38.613Z,38.58
2018-03-28T08:02:44.366Z,39.75
2018-03-28T08:03:50.175Z,43.63
2018-03-28T08:04:55.863Z,42.17
2018-03-28T08:06:01.624Z,42.55
2018-03-28T08:07:08.308Z,42.62
2018-03-28T08:08:14.070Z,44.85
2018-03-28T08:09:20.626Z,46.88
2018-03-28T08:10:27.142Z,43.65
2018-03-28T08:11:32.914Z,43.50
2018-03-28T08:12:38.656Z,42.17
2018-03-28T08:13:45.174Z,42.92
2018-03-28T08:14:50.969Z,46.97
2018-03-28T08:15:57.479Z,43.58
2018-03-28T08:17:03.257Z,41.92
2018-03-28T08:18:09.008Z,45.83
2018-03-28T08:19:15.574Z,40.38
2018-03-28T08:20:21.477Z,42.08
2018-03-28T08:21:27.216Z,43.08
2018-03-28T08:22:32.984Z,43.30
2018-03-28T08:23:38.725Z,42.83
2018-03-28T08:24:44.477Z,44.33
2018-03-28T08:25:50.225Z,41.30
2018-03-28T08:26:56.738Z,44.45
2018-03-28T08:28:02.525Z,45.33
2018-03-28T08:29:09.040Z,42.67
2018-03-28T08:30:14.781Z,39.33
2018-03-28T08:31:20.542Z,44.58
2018-03-28T08:32:27.797Z,43.87
2018-03-28T08:33:33.576Z,40.92
2018-03-28T08:34:39.312Z,38.50
2018-03-28T08:35:45.060Z,41.58
2018-03-28T08:36:51.598Z,47.62
2018-03-28T08:37:57.100Z,37.72
2018-03-28T08:39:02.888Z,40.30
2018-03-28T08:40:08.632Z,42.20
2018-03-28T08:41:14.613Z,47.35
2018-03-28T08:42:20.356Z,44.08
2018-03-28T08:43:26.109Z,42.72
2018-03-28T08:44:31.897Z,42.95
2018-03-28T08:45:37.645Z,43.47
2018-03-28T08:46:44.164Z,38.10
2018-03-28T08:47:49.918Z,43.40
2018-03-28T08:48:55.660Z,45.45
2018-03-28T08:50:01.445Z,45.85
2018-03-28T08:51:07.962Z,40.60
2018-03-28T08:52:13.755Z,42.15
2018-03-28T08:53:19.688Z,42.35
2018-03-28T08:54:25.900Z,42.70
2018-03-28T08:55:31.717Z,40.75
2018-03-28T08:56:37.476Z,43.47
2018-03-28T08:57:43.241Z,40.08
2018-03-28T08:58:48.996Z,43.95
2018-03-28T08:59:54.748Z,43.10
2018-03-28T09:01:01.304Z,43.42
2018-03-28T09:02:07.816Z,42.80
2018-03-28T09:03:13.585Z,47.17
2018-03-28T09:04:20.112Z,39.60
2018-03-28T09:05:25.874Z,40.25
2018-03-28T09:06:31.648Z,39.45
2018-03-28T09:07:38.291Z,45.25
2018-03-28T09:08:44.204Z,38.00
2018-03-28T09:09:49.970Z,38.10
2018-03-28T09:10:55.727Z,44.83
2018-03-28T09:12:01.513Z,42.80
2018-03-28T09:13:07.607Z,38.25
2018-03-28T09:14:13.366Z,39.97
2018-03-28T09:15:19.127Z,42.78
2018-03-28T09:16:25.657Z,42.62
2018-03-28T09:17:31.447Z,38.75
2018-03-28T09:18:37.210Z,39.75
2018-03-28T09:19:42.960Z,42.28
2018-03-28T09:20:48.730Z,43.60
2018-03-28T09:21:54.498Z,39.30
2018-03-28T09:23:01.049Z,40.88
2018-03-28T09:24:07.579Z,38.20
2018-03-28T09:25:13.330Z,42.67
2018-03-28T09:26:19.520Z,39.22
2018-03-28T09:27:25.289Z,36.17
2018-03-28T09:28:31.060Z,34.22
2018-03-28T09:29:36.884Z,36.22
2018-03-28T09:30:42.824Z,33.97
2018-03-28T09:31:48.586Z,34.00
2018-03-28T09:32:54.344Z,33.08
2018-03-28T09:34:00.158Z,36.92
2018-03-28T09:35:05.906Z,38.67
2018-03-28T09:36:11.662Z,34.10
2018-03-28T09:37:18.942Z,40.33
2018-03-28T09:38:24.697Z,34.08
2018-03-28T09:39:31.244Z,37.75
2018-03-28T09:40:37.902Z,33.75
2018-03-28T09:41:43.812Z,33.33
2018-03-28T09:42:49.569Z,34.25
2018-03-28T09:43:55.318Z,36.03
2018-03-28T09:45:01.106Z,34.17
2018-03-28T09:46:07.847Z,33.00
2018-03-28T09:47:15.104Z,34.67
2018-03-28T09:48:21.302Z,31.45
2018-03-28T09:49:27.064Z,33.20
2018-03-28T09:50:32.852Z,32.38
2018-03-28T09:51:38.621Z,29.42
2018-03-28T09:52:45.185Z,35.55
2018-03-28T09:53:51.009Z,31.80
2018-03-28T09:54:57.532Z,30.48
2018-03-28T09:56:03.332Z,30.73
2018-03-28T09:57:09.272Z,31.50
2018-03-28T09:58:15.808Z,33.67
2018-03-28T09:59:21.578Z,30.42
2018-03-28T10:00:27.881Z,31.67
2018-03-28T10:01:33.428Z,31.75
2018-03-28T10:02:44.076Z,32.92
2018-03-28T10:03:50.517Z,33.28
2018-03-28T10:05:00.114Z,32.13
2018-03-28T10:06:06.642Z,36.92
2018-03-28T10:07:12.422Z,32.92
2018-03-28T10:08:18.944Z,31.35
2018-03-28T10:09:24.710Z,30.50
2018-03-28T10:10:30.466Z,28.00
2018-03-28T10:11:36.660Z,29.55
2018-03-28T10:12:42.437Z,26.17
2018-03-28T10:13:48.191Z,27.92
2018-03-28T10:14:54.730Z,29.60
2018-03-28T10:16:00.701Z,30.85
2018-03-28T10:17:06.895Z,30.35
2018-03-28T10:18:12.674Z,26.62
2018-03-28T10:19:18.433Z,27.58
2018-03-28T10:20:24.194Z,32.75
2018-03-28T10:21:29.944Z,24.08
2018-03-28T10:22:36.467Z,23.23
2018-03-28T10:23:42.254Z,23.65
2018-03-28T10:24:48.009Z,28.08
2018-03-28T10:25:53.777Z,24.50
2018-03-28T10:26:59.545Z,25.65
2018-03-28T10:28:05.304Z,24.70
2018-03-28T10:29:11.081Z,24.52
2018-03-28T10:30:16.852Z,24.55
2018-03-28T10:31:22.611Z,23.33
2018-03-28T10:32:28.395Z,22.95
2018-03-28T10:33:33.930Z,20.48
2018-03-28T10:34:40.500Z,21.75
2018-03-28T10:35:45.921Z,25.40
2018-03-28T10:36:52.446Z,23.33
2018-03-28T10:37:58.200Z,20.23
2018-03-28T10:39:03.935Z,22.73
2018-03-28T10:40:09.751Z,20.65
2018-03-28T10:41:15.529Z,19.55
2018-03-28T10:42:21.314Z,23.00
2018-03-28T10:43:27.298Z,21.80
2018-03-28T10:44:33.076Z,21.87
2018-03-28T10:45:39.626Z,22.98
2018-03-28T10:46:46.159Z,19.30
2018-03-28T10:47:52.065Z,20.85
2018-03-28T10:48:58.234Z,18.40
2018-03-28T10:50:03.996Z,22.92
2018-03-28T10:51:09.814Z,30.80
2018-03-28T10:52:15.592Z,31.70
2018-03-28T10:53:22.873Z,21.50
2018-03-28T10:54:28.490Z,18.02
2018-03-28T10:55:35.834Z,20.95
2018-03-28T10:56:41.647Z,21.62
2018-03-28T10:57:48.236Z,18.98
2018-03-28T10:58:54.075Z,21.05
2018-03-28T11:00:00.625Z,20.88
2018-03-28T11:01:06.394Z,31.08
2018-03-28T11:02:12.214Z,24.98
2018-03-28T11:03:17.988Z,23.35
2018-03-28T11:04:23.758Z,19.90
2018-03-28T11:05:29.537Z,18.85
2018-03-28T11:06:35.311Z,17.48
2018-03-28T11:07:41.118Z,15.32
2018-03-28T11:08:46.895Z,19.17
2018-03-28T11:09:52.706Z,17.48
2018-03-28T11:10:58.485Z,20.83
2018-03-28T11:12:04.259Z,19.65
2018-03-28T11:13:10.068Z,18.95
2018-03-28T11:14:15.851Z,19.35
2018-03-28T11:15:22.406Z,18.33
2018-03-28T11:16:28.958Z,21.15
2018-03-28T11:17:34.744Z,17.90
2018-03-28T11:18:40.553Z,18.75
2018-03-28T11:19:47.123Z,19.12
2018-03-28T11:20:53.708Z,19.70
2018-03-28T11:21:59.482Z,22.13
2018-03-28T11:23:05.257Z,21.58
2018-03-28T11:24:11.062Z,22.80
2018-03-28T11:25:16.851Z,19.50
2018-03-28T11:26:23.395Z,17.40
2018-03-28T11:27:29.166Z,21.67
2018-03-28T11:28:34.945Z,19.58
2018-03-28T11:29:40.751Z,18.45
2018-03-28T11:30:46.618Z,19.62
2018-03-28T11:31:53.327Z,15.43
2018-03-28T11:32:59.126Z,17.45
2018-03-28T11:34:04.900Z,21.50
2018-03-28T11:35:10.722Z,19.77
2018-03-28T11:36:16.541Z,17.62
2018-03-28T11:37:22.330Z,16.77
2018-03-28T11:38:28.106Z,18.95
2018-03-28T11:39:34.753Z,17.37
2018-03-28T11:40:40.566Z,14.70
2018-03-28T11:41:46.349Z,20.40
2018-03-28T11:42:52.911Z,18.17
2018-03-28T11:43:59.450Z,18.33
2018-03-28T11:45:04.654Z,17.75
2018-03-28T11:46:10.362Z,17.85
2018-03-28T11:47:18.590Z,16.58
2018-03-28T11:48:24.366Z,17.75
2018-03-28T11:49:30.134Z,18.00
2018-03-28T11:50:35.913Z,19.65
2018-03-28T11:51:41.725Z,18.58
2018-03-28T11:52:47.510Z,18.60
2018-03-28T11:53:53.290Z,20.58
2018-03-28T11:54:59.877Z,19.67
2018-03-28T11:56:05.351Z,22.23
2018-03-28T11:57:11.146Z,21.83
2018-03-28T11:58:21.645Z,21.65
2018-03-28T11:59:27.859Z,19.87
2018-03-28T12:00:33.647Z,20.20
2018-03-28T12:01:39.441Z,21.35
2018-03-28T12:02:45.294Z,19.90
2018-03-28T12:03:51.100Z,22.67
2018-03-28T12:04:56.890Z,18.90
2018-03-28T12:06:02.717Z,18.52
2018-03-28T12:07:09.317Z,18.62
2018-03-28T12:08:16.278Z,18.75
2018-03-28T12:09:22.088Z,18.45
2018-03-28T12:10:27.884Z,13.93
2018-03-28T12:11:33.674Z,15.45
2018-03-28T12:12:39.465Z,14.85
2018-03-28T12:13:45.287Z,15.57
2018-03-28T12:14:51.059Z,16.45
2018-03-28T12:15:57.686Z,14.30
2018-03-28T12:17:03.682Z,14.13
2018-03-28T12:18:10.222Z,17.33
2018-03-28T12:19:16.026Z,17.00
2018-03-28T12:20:21.816Z,15.75
2018-03-28T12:21:27.606Z,14.63
2018-03-28T12:22:33.383Z,14.57
2018-03-28T12:23:39.156Z,15.07
2018-03-28T12:24:45.717Z,15.45
2018-03-28T12:25:52.259Z,14.65
2018-03-28T12:26:58.051Z,15.38
2018-03-28T12:28:03.901Z,16.83
2018-03-28T12:29:09.868Z,14.13
2018-03-28T12:30:15.776Z,14.07
2018-03-28T12:31:21.571Z,16.52
2018-03-28T12:32:27.346Z,18.17
2018-03-28T12:33:33.171Z,17.08
2018-03-28T12:34:39.148Z,21.35
2018-03-28T12:35:44.943Z,14.65
2018-03-28T12:36:50.746Z,17.83
2018-03-28T12:37:56.753Z,14.98
2018-03-28T12:39:03.071Z,16.08
2018-03-28T12:40:08.857Z,21.85
2018-03-28T12:41:15.439Z,21.23
2018-03-28T12:42:21.231Z,21.80
2018-03-28T12:43:27.019Z,21.15
2018-03-28T12:44:32.790Z,15.50
2018-03-28T12:45:38.565Z,19.10
2018-03-28T12:46:45.147Z,17.83
2018-03-28T12:47:51.690Z,17.98
2018-03-28T12:48:57.468Z,18.83
2018-03-28T12:50:03.274Z,20.73
2018-03-28T12:51:09.246Z,18.30
2018-03-28T12:52:15.866Z,22.83
2018-03-28T12:53:21.793Z,20.02
2018-03-28T12:54:27.553Z,22.50
2018-03-28T12:55:33.387Z,20.62
2018-03-28T12:56:39.336Z,22.62
2018-03-28T12:57:45.133Z,19.25
2018-03-28T12:58:50.906Z,20.45
2018-03-28T12:59:56.690Z,22.60
2018-03-28T13:01:02.650Z,20.58
2018-03-28T13:02:09.178Z,24.85
2018-03-28T13:03:14.967Z,21.73
2018-03-28T13:04:20.720Z,22.05
2018-03-28T13:05:26.495Z,21.15
2018-03-28T13:06:32.252Z,24.05
2018-03-28T13:07:38.012Z,22.65
2018-03-28T13:08:44.595Z,22.48
2018-03-28T13:09:50.351Z,22.90
2018-03-28T13:10:56.125Z,20.83
2018-03-28T13:12:01.889Z,25.10
2018-03-28T13:13:07.649Z,31.67
2018-03-28T13:14:14.227Z,38.80
2018-03-28T13:15:19.995Z,35.95
2018-03-28T13:16:25.761Z,35.45
2018-03-28T13:17:31.516Z,37.42
2018-03-28T13:18:37.275Z,40.30
2018-03-28T13:19:43.064Z,40.58
2018-03-28T13:20:48.820Z,40.05
2018-03-28T13:21:54.583Z,42.55
2018-03-28T13:23:00.348Z,46.28
2018-03-28T13:24:05.787Z,40.33
2018-03-28T13:25:12.093Z,42.55
2018-03-28T13:26:17.900Z,40.28
2018-03-28T13:27:23.652Z,43.65
2018-03-28T13:28:29.412Z,42.33
2018-03-28T13:29:35.168Z,40.45
2018-03-28T13:30:40.976Z,43.95
2018-03-28T13:31:46.728Z,42.40
2018-03-28T13:32:52.495Z,44.38
2018-03-28T13:33:58.292Z,39.92
2018-03-28T13:35:04.041Z,43.60
2018-03-28T13:36:10.770Z,47.90
2018-03-28T13:37:17.297Z,40.78
2018-03-28T13:38:23.191Z,46.45
2018-03-28T13:39:28.956Z,45.65
2018-03-28T13:40:34.705Z,42.60
2018-03-28T13:41:40.490Z,48.22
2018-03-28T13:42:47.012Z,45.33
2018-03-28T13:43:52.768Z,43.55
2018-03-28T13:44:58.532Z,45.88
2018-03-28T13:46:04.820Z,52.83
2018-03-28T13:47:10.616Z,45.67
2018-03-28T13:48:16.177Z,47.05
2018-03-28T13:49:21.941Z,47.17
2018-03-28T13:50:27.719Z,44.85
2018-03-28T13:51:33.486Z,49.95
2018-03-28T13:52:39.276Z,49.10
2018-03-28T13:53:45.035Z,45.53
2018-03-28T13:54:50.788Z,55.80
2018-03-28T13:55:56.553Z,47.45
2018-03-28T13:57:02.322Z,45.88
2018-03-28T13:58:08.141Z,49.97
2018-03-28T13:59:13.884Z,51.72
2018-03-28T14:00:20.342Z,47.72
2018-03-28T14:01:26.927Z,51.90
2018-03-28T14:02:32.688Z,46.85
2018-03-28T14:03:38.573Z,48.10
2018-03-28T14:04:46.814Z,51.47
2018-03-28T14:05:52.246Z,48.92
2018-03-28T14:06:58.023Z,49.83
2018-03-28T14:08:03.811Z,52.55
2018-03-28T14:09:10.373Z,48.80
2018-03-28T14:10:16.901Z,54.08